sensor_id;sensor_type;location;lat;lon;timestamp;pressure;altitude;pressure_sealevel;temperature;humidity
37610;BME280;23457;51.966;8.230;2023-05-24T00:02:07;101632.50;;;9.40;93.05
37610;BME280;23457;51.966;8.230;2023-05-24T00:04:34;101633.56;;;9.45;92.50
37610;BME280;23457;51.966;8.230;2023-05-24T00:07:00;101629.69;;;9.57;93.45
37610;BME280;23457;51.966;8.230;2023-05-24T00:09:29;101628.34;;;9.68;92.33
37610;BME280;23457;51.966;8.230;2023-05-24T00:11:56;101635.53;;;9.52;92.57
37610;BME280;23457;51.966;8.230;2023-05-24T00:14:24;101628.03;;;9.59;92.28
37610;BME280;23457;51.966;8.230;2023-05-24T00:16:51;101628.03;;;9.59;92.69
37610;BME280;23457;51.966;8.230;2023-05-24T00:19:17;101625.81;;;9.21;93.20
37610;BME280;23457;51.966;8.230;2023-05-24T00:21:47;101620.38;;;9.39;92.26
37610;BME280;23457;51.966;8.230;2023-05-24T00:24:14;101613.47;;;9.39;93.47
37610;BME280;23457;51.966;8.230;2023-05-24T00:26:43;101616.34;;;9.47;93.42
37610;BME280;23457;51.966;8.230;2023-05-24T00:29:10;101613.69;;;9.45;93.34
37610;BME280;23457;51.966;8.230;2023-05-24T00:31:37;101614.16;;;9.33;94.45
37610;BME280;23457;51.966;8.230;2023-05-24T00:34:04;101617.53;;;9.07;95.43
37610;BME280;23457;51.966;8.230;2023-05-24T00:36:31;101611.06;;;9.20;95.13
37610;BME280;23457;51.966;8.230;2023-05-24T00:38:58;101616.50;;;9.27;96.09
37610;BME280;23457;51.966;8.230;2023-05-24T00:41:25;101617.41;;;9.28;95.17
37610;BME280;23457;51.966;8.230;2023-05-24T00:43:52;101607.19;;;9.32;93.92
37610;BME280;23457;51.966;8.230;2023-05-24T00:46:33;101610.72;;;9.34;93.79
37610;BME280;23457;51.966;8.230;2023-05-24T00:49:00;101594.47;;;9.40;93.73
37610;BME280;23457;51.966;8.230;2023-05-24T00:51:28;101599.66;;;9.40;95.06
37610;BME280;23457;51.966;8.230;2023-05-24T00:53:57;101606.31;;;9.32;95.35
37610;BME280;23457;51.966;8.230;2023-05-24T00:56:24;101600.06;;;9.27;95.76
37610;BME280;23457;51.966;8.230;2023-05-24T00:58:52;101600.50;;;9.15;96.90
37610;BME280;23457;51.966;8.230;2023-05-24T01:01:22;101603.72;;;9.08;97.12
37610;BME280;23457;51.966;8.230;2023-05-24T01:03:52;101602.53;;;8.98;97.57
37610;BME280;23457;51.966;8.230;2023-05-24T01:06:20;101612.56;;;8.67;98.89
37610;BME280;23457;51.966;8.230;2023-05-24T01:09:22;101607.63;;;8.73;99.55
37610;BME280;23457;51.966;8.230;2023-05-24T01:12:05;101598.03;;;8.94;98.01
37610;BME280;23457;51.966;8.230;2023-05-24T01:15:38;101586.03;;;8.96;97.51
37610;BME280;23457;51.966;8.230;2023-05-24T01:18:10;101584.38;;;8.98;97.10
37610;BME280;23457;51.966;8.230;2023-05-24T01:20:39;101586.03;;;8.96;97.16
37610;BME280;23457;51.966;8.230;2023-05-24T01:23:20;101582.38;;;8.91;97.15
37610;BME280;23457;51.966;8.230;2023-05-24T01:28:38;101584.25;;;8.95;98.60
37610;BME280;23457;51.966;8.230;2023-05-24T01:31:05;101577.75;;;8.83;98.27
37610;BME280;23457;51.966;8.230;2023-05-24T01:33:32;101576.78;;;8.81;98.47
37610;BME280;23457;51.966;8.230;2023-05-24T01:35:59;101572.25;;;8.75;98.32
37610;BME280;23457;51.966;8.230;2023-05-24T01:38:25;101574.81;;;8.51;100.00
37610;BME280;23457;51.966;8.230;2023-05-24T01:41:03;101572.88;;;8.68;99.60
37610;BME280;23457;51.966;8.230;2023-05-24T01:43:38;101578.25;;;8.73;99.71
37610;BME280;23457;51.966;8.230;2023-05-24T01:46:24;101581.72;;;8.73;99.90
37610;BME280;23457;51.966;8.230;2023-05-24T01:49:37;101579.16;;;8.75;100.00
37610;BME280;23457;51.966;8.230;2023-05-24T01:52:04;101574.59;;;8.68;99.36
37610;BME280;23457;51.966;8.230;2023-05-24T01:54:37;101571.53;;;8.55;99.20
37610;BME280;23457;51.966;8.230;2023-05-24T01:57:06;101565.47;;;8.55;100.00
37610;BME280;23457;51.966;8.230;2023-05-24T01:59:35;101567.22;;;8.56;99.67
37610;BME280;23457;51.966;8.230;2023-05-24T02:02:03;101572.16;;;8.50;100.00
37610;BME280;23457;51.966;8.230;2023-05-24T02:04:30;101570.72;;;8.56;100.00
37610;BME280;23457;51.966;8.230;2023-05-24T02:06:56;101571.94;;;8.44;100.00
37610;BME280;23457;51.966;8.230;2023-05-24T02:09:23;101568.53;;;8.45;100.00
37610;BME280;23457;51.966;8.230;2023-05-24T02:11:50;101562.53;;;8.46;100.00
37610;BME280;23457;51.966;8.230;2023-05-24T02:14:16;101563.63;;;8.30;100.00
37610;BME280;23457;51.966;8.230;2023-05-24T02:16:45;101567.25;;;8.34;100.00
37610;BME280;23457;51.966;8.230;2023-05-24T02:19:13;101572.06;;;8.47;100.00
37610;BME280;23457;51.966;8.230;2023-05-24T02:21:39;101581.72;;;8.51;100.00
37610;BME280;23457;51.966;8.230;2023-05-24T02:24:09;101582.44;;;8.47;100.00
37610;BME280;23457;51.966;8.230;2023-05-24T02:26:37;101575.59;;;8.49;100.00
37610;BME280;23457;51.966;8.230;2023-05-24T02:29:05;101576.81;;;8.36;100.00
37610;BME280;23457;51.966;8.230;2023-05-24T02:31:31;101570.00;;;8.38;100.00
37610;BME280;23457;51.966;8.230;2023-05-24T02:33:58;101569.84;;;8.34;100.00
37610;BME280;23457;51.966;8.230;2023-05-24T02:36:25;101573.59;;;8.42;100.00
37610;BME280;23457;51.966;8.230;2023-05-24T02:38:53;101577.19;;;8.45;100.00
37610;BME280;23457;51.966;8.230;2023-05-24T02:41:19;101574.19;;;8.57;100.00
37610;BME280;23457;51.966;8.230;2023-05-24T02:43:47;101572.28;;;8.53;100.00
37610;BME280;23457;51.966;8.230;2023-05-24T02:46:14;101575.56;;;8.47;100.00
37610;BME280;23457;51.966;8.230;2023-05-24T02:48:41;101573.38;;;8.36;100.00
37610;BME280;23457;51.966;8.230;2023-05-24T02:51:08;101566.31;;;8.32;100.00
37610;BME280;23457;51.966;8.230;2023-05-24T02:53:34;101567.78;;;8.26;100.00
37610;BME280;23457;51.966;8.230;2023-05-24T02:56:01;101567.19;;;8.32;100.00
37610;BME280;23457;51.966;8.230;2023-05-24T02:58:30;101571.69;;;8.38;100.00
37610;BME280;23457;51.966;8.230;2023-05-24T03:00:56;101575.13;;;8.37;100.00
37610;BME280;23457;51.966;8.230;2023-05-24T03:03:23;101578.22;;;8.28;100.00
37610;BME280;23457;51.966;8.230;2023-05-24T03:05:50;101569.34;;;8.21;100.00
37610;BME280;23457;51.966;8.230;2023-05-24T03:08:17;101580.59;;;8.23;100.00
37610;BME280;23457;51.966;8.230;2023-05-24T03:10:43;101585.75;;;8.22;100.00
37610;BME280;23457;51.966;8.230;2023-05-24T03:13:12;101574.69;;;8.26;100.00
37610;BME280;23457;51.966;8.230;2023-05-24T03:15:38;101569.56;;;8.05;100.00
37610;BME280;23457;51.966;8.230;2023-05-24T03:18:06;101570.25;;;8.23;100.00
37610;BME280;23457;51.966;8.230;2023-05-24T03:20:33;101572.09;;;8.26;100.00
37610;BME280;23457;51.966;8.230;2023-05-24T03:23:00;101565.06;;;8.23;100.00
37610;BME280;23457;51.966;8.230;2023-05-24T03:25:27;101570.25;;;8.23;100.00
37610;BME280;23457;51.966;8.230;2023-05-24T03:27:54;101572.16;;;8.27;100.00
37610;BME280;23457;51.966;8.230;2023-05-24T03:30:21;101573.97;;;8.30;100.00
37610;BME280;23457;51.966;8.230;2023-05-24T03:32:52;101571.69;;;8.38;100.00
37610;BME280;23457;51.966;8.230;2023-05-24T03:35:19;101571.81;;;8.41;100.00
37610;BME280;23457;51.966;8.230;2023-05-24T03:37:46;101579.31;;;8.33;100.00
37610;BME280;23457;51.966;8.230;2023-05-24T03:40:13;101582.84;;;8.14;100.00
37610;BME280;23457;51.966;8.230;2023-05-24T03:43:03;101580.59;;;8.22;100.00
37610;BME280;23457;51.966;8.230;2023-05-24T03:45:55;101580.94;;;8.31;100.00
37610;BME280;23457;51.966;8.230;2023-05-24T03:48:21;101585.47;;;8.37;100.00
37610;BME280;23457;51.966;8.230;2023-05-24T03:50:50;101588.50;;;8.26;100.00
37610;BME280;23457;51.966;8.230;2023-05-24T03:53:17;101587.75;;;8.29;100.00
37610;BME280;23457;51.966;8.230;2023-05-24T03:55:45;101581.84;;;8.32;100.00
37610;BME280;23457;51.966;8.230;2023-05-24T03:58:11;101589.22;;;8.22;100.00
37610;BME280;23457;51.966;8.230;2023-05-24T04:00:38;101585.75;;;8.22;100.00
37610;BME280;23457;51.966;8.230;2023-05-24T04:03:05;101580.38;;;7.95;100.00
37610;BME280;23457;51.966;8.230;2023-05-24T04:05:32;101587.81;;;8.08;100.00
37610;BME280;23457;51.966;8.230;2023-05-24T04:07:59;101577.03;;;8.20;100.00
37610;BME280;23457;51.966;8.230;2023-05-24T04:10:26;101581.19;;;8.37;100.00
37610;BME280;23457;51.966;8.230;2023-05-24T04:12:52;101582.19;;;8.41;100.00
37610;BME280;23457;51.966;8.230;2023-05-24T04:15:19;101584.09;;;8.24;100.00
37610;BME280;23457;51.966;8.230;2023-05-24T04:17:46;101583.75;;;8.36;100.00
37610;BME280;23457;51.966;8.230;2023-05-24T04:20:14;101580.19;;;8.13;100.00
37610;BME280;23457;51.966;8.230;2023-05-24T04:22:41;101582.34;;;8.23;100.00
37610;BME280;23457;51.966;8.230;2023-05-24T04:25:08;101579.97;;;8.29;100.00
37610;BME280;23457;51.966;8.230;2023-05-24T04:27:35;101579.75;;;8.23;100.00
37610;BME280;23457;51.966;8.230;2023-05-24T04:30:03;101582.78;;;8.34;100.00
37610;BME280;23457;51.966;8.230;2023-05-24T04:32:30;101584.44;;;8.54;100.00
37610;BME280;23457;51.966;8.230;2023-05-24T04:34:57;101583.06;;;8.63;100.00
37610;BME280;23457;51.966;8.230;2023-05-24T04:37:24;101575.81;;;8.10;100.00
37610;BME280;23457;51.966;8.230;2023-05-24T04:39:51;101570.66;;;8.33;100.00
37610;BME280;23457;51.966;8.230;2023-05-24T04:42:17;101575.13;;;8.37;100.00
37610;BME280;23457;51.966;8.230;2023-05-24T04:44:44;101567.34;;;8.59;100.00
37610;BME280;23457;51.966;8.230;2023-05-24T04:47:10;101564.91;;;8.63;100.00
37610;BME280;23457;51.966;8.230;2023-05-24T04:49:38;101567.56;;;8.65;100.00
37610;BME280;23457;51.966;8.230;2023-05-24T04:52:05;101577.88;;;8.86;100.00
37610;BME280;23457;51.966;8.230;2023-05-24T04:54:33;101585.91;;;8.70;100.00
37610;BME280;23457;51.966;8.230;2023-05-24T04:57:00;101578.06;;;8.68;100.00
37610;BME280;23457;51.966;8.230;2023-05-24T04:59:26;101576.97;;;8.85;100.00
37610;BME280;23457;51.966;8.230;2023-05-24T05:01:53;101580.16;;;8.78;100.00
37610;BME280;23457;51.966;8.230;2023-05-24T05:04:20;101591.19;;;8.73;100.00
37610;BME280;23457;51.966;8.230;2023-05-24T05:06:46;101591.09;;;8.93;100.00
37610;BME280;23457;51.966;8.230;2023-05-24T05:09:13;101585.13;;;8.96;100.00
37610;BME280;23457;51.966;8.230;2023-05-24T05:11:41;101585.91;;;8.93;100.00
37610;BME280;23457;51.966;8.230;2023-05-24T05:14:08;101585.28;;;9.01;100.00
37610;BME280;23457;51.966;8.230;2023-05-24T05:16:35;101586.59;;;9.12;100.00
37610;BME280;23457;51.966;8.230;2023-05-24T05:19:03;101583.25;;;9.16;100.00
37610;BME280;23457;51.966;8.230;2023-05-24T05:21:30;101588.97;;;9.31;100.00
37610;BME280;23457;51.966;8.230;2023-05-24T05:23:59;101582.66;;;9.23;100.00
37610;BME280;23457;51.966;8.230;2023-05-24T05:26:26;101587.22;;;9.30;100.00
37610;BME280;23457;51.966;8.230;2023-05-24T05:28:53;101591.03;;;9.16;100.00
37610;BME280;23457;51.966;8.230;2023-05-24T05:31:23;101584.09;;;9.40;100.00
37610;BME280;23457;51.966;8.230;2023-05-24T05:33:49;101598.06;;;9.44;100.00
37610;BME280;23457;51.966;8.230;2023-05-24T05:36:16;101596.38;;;9.20;100.00
37610;BME280;23457;51.966;8.230;2023-05-24T05:38:43;101593.06;;;9.48;100.00
37610;BME280;23457;51.966;8.230;2023-05-24T05:41:10;101594.84;;;9.76;100.00
37610;BME280;23457;51.966;8.230;2023-05-24T05:43:37;101595.16;;;9.85;100.00
37610;BME280;23457;51.966;8.230;2023-05-24T05:46:04;101591.50;;;9.80;100.00
37610;BME280;23457;51.966;8.230;2023-05-24T05:48:31;101592.41;;;9.81;100.00
37610;BME280;23457;51.966;8.230;2023-05-24T05:50:58;101599.72;;;9.67;100.00
37610;BME280;23457;51.966;8.230;2023-05-24T05:53:25;101597.00;;;9.62;100.00
37610;BME280;23457;51.966;8.230;2023-05-24T05:55:51;101605.63;;;9.63;100.00
37610;BME280;23457;51.966;8.230;2023-05-24T05:58:18;101609.97;;;9.88;100.00
37610;BME280;23457;51.966;8.230;2023-05-24T06:00:45;101607.84;;;10.03;100.00
37610;BME280;23457;51.966;8.230;2023-05-24T06:03:12;101608.31;;;9.91;100.00
37610;BME280;23457;51.966;8.230;2023-05-24T06:05:38;101608.97;;;10.11;100.00
37610;BME280;23457;51.966;8.230;2023-05-24T06:08:05;101605.06;;;9.97;100.00
37610;BME280;23457;51.966;8.230;2023-05-24T06:10:32;101604.91;;;9.92;100.00
37610;BME280;23457;51.966;8.230;2023-05-24T06:13:01;101609.81;;;10.10;100.00
37610;BME280;23457;51.966;8.230;2023-05-24T06:15:28;101611.44;;;10.06;100.00
37610;BME280;23457;51.966;8.230;2023-05-24T06:17:54;101599.47;;;9.85;100.00
37610;BME280;23457;51.966;8.230;2023-05-24T06:20:21;101606.94;;;9.50;100.00
37610;BME280;23457;51.966;8.230;2023-05-24T06:22:48;101610.22;;;9.70;100.00
37610;BME280;23457;51.966;8.230;2023-05-24T06:25:16;101615.22;;;9.91;100.00
37610;BME280;23457;51.966;8.230;2023-05-24T06:27:46;101611.81;;;9.92;100.00
37610;BME280;23457;51.966;8.230;2023-05-24T06:30:13;101604.25;;;9.73;100.00
37610;BME280;23457;51.966;8.230;2023-05-24T06:32:39;101598.59;;;9.84;100.00
37610;BME280;23457;51.966;8.230;2023-05-24T06:35:07;101607.00;;;10.04;100.00
37610;BME280;23457;51.966;8.230;2023-05-24T06:37:34;101607.19;;;10.35;100.00
37610;BME280;23457;51.966;8.230;2023-05-24T06:40:01;101615.09;;;10.38;100.00
37610;BME280;23457;51.966;8.230;2023-05-24T06:42:30;101617.72;;;10.68;100.00
37610;BME280;23457;51.966;8.230;2023-05-24T06:44:56;101613.44;;;10.42;100.00
37610;BME280;23457;51.966;8.230;2023-05-24T06:47:23;101617.28;;;10.55;100.00
37610;BME280;23457;51.966;8.230;2023-05-24T06:49:50;101619.31;;;10.63;100.00
37610;BME280;23457;51.966;8.230;2023-05-24T06:52:17;101615.53;;;10.82;100.00
37610;BME280;23457;51.966;8.230;2023-05-24T06:54:43;101615.72;;;10.88;100.00
37610;BME280;23457;51.966;8.230;2023-05-24T06:57:10;101627.69;;;10.55;100.00
37610;BME280;23457;51.966;8.230;2023-05-24T06:59:37;101621.75;;;10.59;100.00
37610;BME280;23457;51.966;8.230;2023-05-24T07:02:04;101631.13;;;10.82;100.00
37610;BME280;23457;51.966;8.230;2023-05-24T07:04:30;101626.59;;;10.75;100.00
37610;BME280;23457;51.966;8.230;2023-05-24T07:06:57;101628.03;;;10.37;100.00
37610;BME280;23457;51.966;8.230;2023-05-24T07:09:24;101628.09;;;10.97;100.00
37610;BME280;23457;51.966;8.230;2023-05-24T07:11:51;101633.59;;;11.07;100.00
37610;BME280;23457;51.966;8.230;2023-05-24T07:14:18;101626.28;;;11.24;100.00
37610;BME280;23457;51.966;8.230;2023-05-24T07:16:45;101627.69;;;11.13;100.00
37610;BME280;23457;51.966;8.230;2023-05-24T07:19:12;101635.31;;;11.37;100.00
37610;BME280;23457;51.966;8.230;2023-05-24T07:21:39;101631.63;;;11.62;100.00
37610;BME280;23457;51.966;8.230;2023-05-24T07:24:06;101630.88;;;11.67;100.00
37610;BME280;23457;51.966;8.230;2023-05-24T07:26:37;101628.38;;;11.70;100.00
37610;BME280;23457;51.966;8.230;2023-05-24T07:29:05;101634.84;;;11.84;99.35
37610;BME280;23457;51.966;8.230;2023-05-24T07:31:35;101634.75;;;11.81;98.48
37610;BME280;23457;51.966;8.230;2023-05-24T07:34:02;101629.09;;;11.98;98.52
37610;BME280;23457;51.966;8.230;2023-05-24T07:36:29;101631.41;;;12.22;98.91
37610;BME280;23457;51.966;8.230;2023-05-24T07:39:00;101627.16;;;11.91;97.84
37610;BME280;23457;51.966;8.230;2023-05-24T07:41:29;101635.53;;;12.12;97.24
37610;BME280;23457;51.966;8.230;2023-05-24T07:43:55;101634.41;;;12.01;97.51
37610;BME280;23457;51.966;8.230;2023-05-24T07:46:22;101629.47;;;11.78;98.58
37610;BME280;23457;51.966;8.230;2023-05-24T07:48:49;101635.63;;;12.15;97.88
37610;BME280;23457;51.966;8.230;2023-05-24T07:51:16;101635.31;;;12.03;96.10
37610;BME280;23457;51.966;8.230;2023-05-24T07:53:43;101631.94;;;12.07;95.71
37610;BME280;23457;51.966;8.230;2023-05-24T07:56:09;101628.47;;;12.08;97.09
37610;BME280;23457;51.966;8.230;2023-05-24T07:58:36;101626.22;;;12.22;95.99
37610;BME280;23457;51.966;8.230;2023-05-24T08:01:05;101615.47;;;12.45;94.66
37610;BME280;23457;51.966;8.230;2023-05-24T08:03:33;101632.31;;;12.22;93.35
37610;BME280;23457;51.966;8.230;2023-05-24T08:06:00;101621.00;;;12.22;94.27
37610;BME280;23457;51.966;8.230;2023-05-24T08:08:27;101630.22;;;12.45;94.92
37610;BME280;23457;51.966;8.230;2023-05-24T08:10:53;101627.50;;;12.04;96.60
37610;BME280;23457;51.966;8.230;2023-05-24T08:13:20;101625.41;;;12.24;95.78
37610;BME280;23457;51.966;8.230;2023-05-24T08:15:48;101630.13;;;12.40;95.18
37610;BME280;23457;51.966;8.230;2023-05-24T08:18:15;101632.97;;;12.51;94.75
37610;BME280;23457;51.966;8.230;2023-05-24T08:20:41;101639.66;;;12.02;94.71
37610;BME280;23457;51.966;8.230;2023-05-24T08:23:08;101645.28;;;12.20;94.71
37610;BME280;23457;51.966;8.230;2023-05-24T08:25:35;101636.66;;;12.23;94.09
37610;BME280;23457;51.966;8.230;2023-05-24T08:28:01;101650.66;;;12.64;93.82
37610;BME280;23457;51.966;8.230;2023-05-24T08:30:28;101644.13;;;12.45;91.73
37610;BME280;23457;51.966;8.230;2023-05-24T08:32:56;101633.94;;;12.56;92.25
37610;BME280;23457;51.966;8.230;2023-05-24T08:35:23;101642.78;;;13.02;90.20
37610;BME280;23457;51.966;8.230;2023-05-24T08:37:50;101638.63;;;12.71;90.79
37610;BME280;23457;51.966;8.230;2023-05-24T08:40:17;101635.28;;;12.76;90.90
37610;BME280;23457;51.966;8.230;2023-05-24T08:42:44;101635.81;;;12.62;88.58
37610;BME280;23457;51.966;8.230;2023-05-24T08:45:13;101637.13;;;12.82;89.43
37610;BME280;23457;51.966;8.230;2023-05-24T08:47:42;101631.81;;;13.18;87.81
37610;BME280;23457;51.966;8.230;2023-05-24T08:50:09;101637.94;;;12.79;85.75
37610;BME280;23457;51.966;8.230;2023-05-24T08:52:41;101627.72;;;12.88;86.20
37610;BME280;23457;51.966;8.230;2023-05-24T08:55:08;101632.72;;;12.78;89.58
37610;BME280;23457;51.966;8.230;2023-05-24T08:57:37;101635.72;;;12.57;91.23
37610;BME280;23457;51.966;8.230;2023-05-24T09:00:08;101634.22;;;12.68;89.28
37610;BME280;23457;51.966;8.230;2023-05-24T09:02:37;101634.81;;;12.96;89.74
37610;BME280;23457;51.966;8.230;2023-05-24T09:05:09;101638.16;;;12.88;90.43
37610;BME280;23457;51.966;8.230;2023-05-24T09:07:37;101639.31;;;13.03;91.04
37610;BME280;23457;51.966;8.230;2023-05-24T09:10:05;101640.13;;;13.00;87.99
37610;BME280;23457;51.966;8.230;2023-05-24T09:12:33;101635.66;;;13.35;84.59
37610;BME280;23457;51.966;8.230;2023-05-24T09:15:05;101631.47;;;13.01;85.94
37610;BME280;23457;51.966;8.230;2023-05-24T09:17:36;101633.94;;;13.37;85.42
37610;BME280;23457;51.966;8.230;2023-05-24T09:20:05;101636.13;;;13.61;83.28
37610;BME280;23457;51.966;8.230;2023-05-24T09:22:35;101630.91;;;13.61;83.09
37610;BME280;23457;51.966;8.230;2023-05-24T09:25:08;101636.91;;;13.57;82.04
37610;BME280;23457;51.966;8.230;2023-05-24T09:27:36;101643.31;;;13.73;81.81
37610;BME280;23457;51.966;8.230;2023-05-24T09:30:08;101638.00;;;13.67;80.92
37610;BME280;23457;51.966;8.230;2023-05-24T09:32:36;101638.66;;;13.55;84.53
37610;BME280;23457;51.966;8.230;2023-05-24T09:35:07;101650.72;;;13.50;78.61
37610;BME280;23457;51.966;8.230;2023-05-24T09:37:35;101645.41;;;13.45;75.09
37610;BME280;23457;51.966;8.230;2023-05-24T09:40:04;101644.59;;;13.48;75.61
37610;BME280;23457;51.966;8.230;2023-05-24T09:42:32;101634.75;;;13.35;77.09
37610;BME280;23457;51.966;8.230;2023-05-24T09:45:04;101642.59;;;13.35;76.88
37610;BME280;23457;51.966;8.230;2023-05-24T09:47:42;101643.97;;;13.61;77.87
37610;BME280;23457;51.966;8.230;2023-05-24T09:50:15;101644.97;;;13.69;75.54
37610;BME280;23457;51.966;8.230;2023-05-24T09:52:44;101640.59;;;13.68;75.04
37610;BME280;23457;51.966;8.230;2023-05-24T09:55:16;101647.03;;;13.39;76.19
37610;BME280;23457;51.966;8.230;2023-05-24T09:57:49;101650.59;;;13.44;75.57
37610;BME280;23457;51.966;8.230;2023-05-24T10:00:21;101651.31;;;12.95;76.98
37610;BME280;23457;51.966;8.230;2023-05-24T10:03:02;101648.75;;;12.96;79.06
37610;BME280;23457;51.966;8.230;2023-05-24T10:05:29;101647.38;;;13.13;79.68
37610;BME280;23457;51.966;8.230;2023-05-24T10:07:57;101642.72;;;13.41;77.49
37610;BME280;23457;51.966;8.230;2023-05-24T10:10:27;101640.22;;;13.47;78.64
37610;BME280;23457;51.966;8.230;2023-05-24T10:12:58;101638.81;;;13.64;78.76
37610;BME280;23457;51.966;8.230;2023-05-24T10:15:26;101643.97;;;13.61;81.14
37610;BME280;23457;51.966;8.230;2023-05-24T10:17:54;101650.13;;;13.65;81.43
37610;BME280;23457;51.966;8.230;2023-05-24T10:20:22;101645.91;;;13.26;80.20
37610;BME280;23457;51.966;8.230;2023-05-24T10:22:59;101654.13;;;13.46;78.10
37610;BME280;23457;51.966;8.230;2023-05-24T10:25:31;101651.47;;;13.44;78.60
37610;BME280;23457;51.966;8.230;2023-05-24T10:28:07;101655.50;;;13.72;77.79
37610;BME280;23457;51.966;8.230;2023-05-24T10:31:01;101658.47;;;13.92;76.55
37610;BME280;23457;51.966;8.230;2023-05-24T10:33:30;101648.97;;;13.98;80.33
37610;BME280;23457;51.966;8.230;2023-05-24T10:35:58;101658.31;;;13.84;75.79
37610;BME280;23457;51.966;8.230;2023-05-24T10:38:24;101651.34;;;13.85;76.16
37610;BME280;23457;51.966;8.230;2023-05-24T10:40:51;101654.75;;;13.79;77.32
37610;BME280;23457;51.966;8.230;2023-05-24T10:43:20;101656.53;;;13.80;78.49
37610;BME280;23457;51.966;8.230;2023-05-24T10:45:48;101659.97;;;13.78;79.86
37610;BME280;23457;51.966;8.230;2023-05-24T10:50:42;101662.00;;;13.47;79.59
37610;BME280;23457;51.966;8.230;2023-05-24T10:53:11;101665.03;;;13.70;77.84
37610;BME280;23457;51.966;8.230;2023-05-24T10:56:02;101671.56;;;13.95;77.36
37610;BME280;23457;51.966;8.230;2023-05-24T10:58:58;101665.09;;;13.73;77.26
37610;BME280;23457;51.966;8.230;2023-05-24T11:01:28;101662.22;;;13.59;78.04
37610;BME280;23457;51.966;8.230;2023-05-24T11:04:17;101658.84;;;13.65;78.81
37610;BME280;23457;51.966;8.230;2023-05-24T11:09:17;101660.69;;;13.71;80.09
37610;BME280;23457;51.966;8.230;2023-05-24T11:11:49;101662.44;;;13.72;81.33
37610;BME280;23457;51.966;8.230;2023-05-24T11:14:25;101651.75;;;14.08;81.62
37610;BME280;23457;51.966;8.230;2023-05-24T11:16:52;101658.34;;;13.86;76.85
37610;BME280;23457;51.966;8.230;2023-05-24T11:19:28;101653.50;;;13.59;78.62
37610;BME280;23457;51.966;8.230;2023-05-24T11:21:56;101654.75;;;13.79;78.59
37610;BME280;23457;51.966;8.230;2023-05-24T11:24:25;101646.31;;;13.95;80.24
37610;BME280;23457;51.966;8.230;2023-05-24T11:26:58;101641.41;;;14.14;76.96
37610;BME280;23457;51.966;8.230;2023-05-24T11:29:26;101651.91;;;14.17;76.34
37610;BME280;23457;51.966;8.230;2023-05-24T11:31:55;101653.00;;;14.29;75.58
37610;BME280;23457;51.966;8.230;2023-05-24T11:34:31;101649.31;;;14.20;76.66
37610;BME280;23457;51.966;8.230;2023-05-24T11:36:59;101643.09;;;14.12;79.48
37610;BME280;23457;51.966;8.230;2023-05-24T11:39:34;101652.34;;;13.90;76.60
37610;BME280;23457;51.966;8.230;2023-05-24T11:42:05;101647.78;;;13.78;79.10
37610;BME280;23457;51.966;8.230;2023-05-24T11:44:33;101655.28;;;14.11;79.17
37610;BME280;23457;51.966;8.230;2023-05-24T11:47:01;101651.19;;;13.74;80.70
37610;BME280;23457;51.966;8.230;2023-05-24T11:49:28;101647.19;;;13.48;82.01
37610;BME280;23457;51.966;8.230;2023-05-24T11:51:58;101652.25;;;13.85;79.67
37610;BME280;23457;51.966;8.230;2023-05-24T11:54:29;101649.00;;;14.00;81.22
37610;BME280;23457;51.966;8.230;2023-05-24T11:56:58;101642.84;;;13.96;79.11
37610;BME280;23457;51.966;8.230;2023-05-24T11:59:26;101642.13;;;14.04;80.35
37610;BME280;23457;51.966;8.230;2023-05-24T12:01:57;101647.38;;;14.05;80.14
37610;BME280;23457;51.966;8.230;2023-05-24T12:04:27;101640.56;;;14.16;79.20
37610;BME280;23457;51.966;8.230;2023-05-24T12:06:54;101633.09;;;14.39;77.79
37610;BME280;23457;51.966;8.230;2023-05-24T12:09:22;101639.66;;;14.14;79.78
37610;BME280;23457;51.966;8.230;2023-05-24T12:11:51;101637.72;;;14.57;78.65
37610;BME280;23457;51.966;8.230;2023-05-24T12:14:22;101632.56;;;14.61;76.65
37610;BME280;23457;51.966;8.230;2023-05-24T12:16:49;101637.03;;;14.70;80.81
37610;BME280;23457;51.966;8.230;2023-05-24T12:19:20;101646.72;;;14.76;78.67
37610;BME280;23457;51.966;8.230;2023-05-24T12:21:57;101637.19;;;14.82;75.89
37610;BME280;23457;51.966;8.230;2023-05-24T12:24:25;101638.72;;;14.65;74.78
37610;BME280;23457;51.966;8.230;2023-05-24T12:26:57;101637.19;;;14.81;79.69
37610;BME280;23457;51.966;8.230;2023-05-24T12:29:24;101643.41;;;14.89;76.53
37610;BME280;23457;51.966;8.230;2023-05-24T12:31:51;101637.66;;;15.17;75.67
37610;BME280;23457;51.966;8.230;2023-05-24T12:34:18;101641.22;;;15.25;74.01
37610;BME280;23457;51.966;8.230;2023-05-24T12:36:45;101646.41;;;15.19;74.82
37610;BME280;23457;51.966;8.230;2023-05-24T12:39:23;101649.13;;;15.27;72.04
37610;BME280;23457;51.966;8.230;2023-05-24T12:41:57;101640.78;;;14.89;73.58
37610;BME280;23457;51.966;8.230;2023-05-24T12:44:26;101649.72;;;14.44;75.28
37610;BME280;23457;51.966;8.230;2023-05-24T12:46:54;101649.03;;;14.54;74.92
37610;BME280;23457;51.966;8.230;2023-05-24T12:49:22;101650.69;;;14.49;75.84
37610;BME280;23457;51.966;8.230;2023-05-24T12:51:49;101652.56;;;14.56;79.99
37610;BME280;23457;51.966;8.230;2023-05-24T12:54:18;101655.16;;;14.55;76.89
37610;BME280;23457;51.966;8.230;2023-05-24T12:56:45;101654.97;;;14.44;78.56
37610;BME280;23457;51.966;8.230;2023-05-24T12:59:11;101659.94;;;14.29;78.60
37610;BME280;23457;51.966;8.230;2023-05-24T13:01:38;101651.19;;;14.27;77.99
37610;BME280;23457;51.966;8.230;2023-05-24T13:04:05;101652.56;;;14.56;76.97
37610;BME280;23457;51.966;8.230;2023-05-24T13:06:32;101649.06;;;14.57;78.29
37610;BME280;23457;51.966;8.230;2023-05-24T13:08:59;101643.44;;;14.33;79.30